Penrose, Colorado
Current Conditions -  °F | °C
As of 12:55 AM on Monday 22 Dec 2014 (Local Time) from K1V6 Reporting Station
Overcast Overcast  
Wind Chill: 41°   Ceiling: 9000
Heat Index: 41°   Visibility: 10mi
Dew Point: 34°   Wind: 0mph
Humidity: 76%   Direction: NA
Pressure: 29.67"   Gusts: NA
Location:  38.42°N, 105.02°W
Report Text: K1V6 220755Z AUTO 00000KT 10SM OVC090 05/01 A2967 RMK AO2
Loading
Personal Weather Stations






























Interactive Weather Map New forecast layout! Learn more

10-Day Weather Forecast

Advertisements
Track Severe Weather on mobile